createdAt,value
2022-08-30T00:00:02.355Z,17.50
2022-08-30T00:02:29.433Z,17.50
2022-08-30T00:04:56.557Z,17.40
2022-08-30T00:07:23.684Z,17.30
2022-08-30T00:09:50.601Z,17.30
2022-08-30T00:12:17.686Z,17.30
2022-08-30T00:14:44.654Z,17.30
2022-08-30T00:17:11.533Z,17.20
2022-08-30T00:19:38.806Z,17.20
2022-08-30T00:22:07.289Z,17.10
2022-08-30T00:24:34.249Z,17.10
2022-08-30T00:27:01.129Z,17.20
2022-08-30T00:29:28.196Z,17.10
2022-08-30T00:31:55.045Z,17.10
2022-08-30T00:44:12.067Z,16.80
2022-08-30T00:46:38.972Z,16.90
2022-08-30T00:49:11.409Z,16.80
2022-08-30T00:51:39.439Z,16.80
2022-08-30T00:54:07.758Z,16.70
2022-08-30T00:56:35.184Z,16.70
2022-08-30T00:59:04.420Z,16.60
2022-08-30T01:01:34.327Z,16.60
2022-08-30T01:04:02.332Z,16.70
2022-08-30T01:06:32.605Z,16.80
2022-08-30T01:09:02.658Z,16.70
2022-08-30T01:11:32.284Z,16.60
2022-08-30T01:14:01.175Z,16.50
2022-08-30T01:16:34.388Z,16.40
2022-08-30T01:19:02.800Z,16.40
2022-08-30T01:21:47.823Z,16.30
2022-08-30T01:24:15.435Z,16.30
2022-08-30T01:26:42.334Z,16.30
2022-08-30T01:29:15.214Z,16.40
2022-08-30T01:31:42.077Z,16.40
2022-08-30T01:34:10.050Z,16.40
2022-08-30T01:36:44.569Z,16.30
2022-08-30T01:39:16.984Z,16.30
2022-08-30T01:41:45.336Z,16.20
2022-08-30T01:44:14.533Z,16.20
2022-08-30T01:46:47.318Z,16.20
2022-08-30T01:49:19.987Z,16.20
2022-08-30T01:52:00.976Z,16.10
2022-08-30T01:54:33.207Z,16.10
2022-08-30T01:57:10.397Z,16.20
2022-08-30T01:59:39.294Z,16.20
2022-08-30T02:02:07.212Z,16.10
2022-08-30T02:04:36.384Z,16.10
2022-08-30T02:07:04.767Z,16.00
2022-08-30T02:09:31.790Z,16.00
2022-08-30T02:11:59.110Z,15.90
2022-08-30T02:14:26.098Z,15.80
2022-08-30T02:16:53.051Z,15.80
2022-08-30T02:19:19.933Z,15.80
2022-08-30T02:21:46.897Z,15.80
2022-08-30T02:24:13.745Z,15.80
2022-08-30T02:26:40.795Z,15.60
2022-08-30T02:29:07.881Z,15.70
2022-08-30T02:31:35.523Z,15.80
2022-08-30T02:34:02.669Z,15.80
2022-08-30T02:36:29.559Z,15.80
2022-08-30T02:38:56.602Z,15.70
2022-08-30T02:41:24.180Z,15.60
2022-08-30T02:43:51.753Z,15.60
2022-08-30T02:46:18.945Z,15.60
2022-08-30T02:48:46.133Z,15.60
2022-08-30T02:51:14.192Z,15.60
2022-08-30T02:53:43.919Z,15.60
2022-08-30T02:56:13.880Z,15.60
2022-08-30T02:58:44.999Z,15.70
2022-08-30T03:01:15.612Z,15.60
2022-08-30T03:03:45.444Z,15.60
2022-08-30T03:06:13.525Z,15.60
2022-08-30T03:08:41.345Z,15.50
2022-08-30T03:11:10.001Z,15.50
2022-08-30T03:13:37.569Z,15.50
2022-08-30T03:16:04.523Z,15.50
2022-08-30T03:18:31.382Z,15.40
2022-08-30T03:20:58.784Z,15.40
2022-08-30T03:23:25.694Z,15.30
2022-08-30T03:25:53.559Z,15.30
2022-08-30T03:28:20.606Z,15.30
2022-08-30T03:30:48.134Z,15.40
2022-08-30T03:33:15.352Z,15.40
2022-08-30T03:35:42.337Z,15.30
2022-08-30T03:38:09.328Z,15.30
2022-08-30T03:40:36.735Z,15.30
2022-08-30T03:43:05.467Z,15.30
2022-08-30T03:45:32.663Z,15.30
2022-08-30T03:47:59.753Z,15.30
2022-08-30T03:50:26.951Z,15.30
2022-08-30T03:52:53.840Z,15.30
2022-08-30T03:55:21.251Z,15.30
2022-08-30T08:08:48.320Z,20.70
2022-08-30T08:11:22.893Z,20.90
2022-08-30T08:13:54.041Z,20.90
2022-08-30T08:16:30.246Z,21.00
2022-08-30T08:18:57.821Z,21.10
2022-08-30T08:21:27.318Z,21.10
2022-08-30T08:23:55.272Z,21.30
2022-08-30T08:26:22.628Z,21.40
2022-08-30T08:28:52.220Z,21.60
2022-08-30T08:31:33.275Z,21.90
2022-08-30T08:34:03.094Z,22.10
2022-08-30T08:36:31.468Z,22.10
2022-08-30T08:38:59.476Z,21.90
2022-08-30T08:41:51.159Z,22.00
2022-08-30T08:45:00.411Z,22.30
2022-08-30T08:48:00.436Z,22.80
2022-08-30T08:50:31.482Z,23.20
2022-08-30T08:53:46.486Z,23.60
2022-08-30T08:56:18.677Z,24.00
2022-08-30T08:58:50.115Z,24.40
2022-08-30T09:01:23.485Z,24.70
2022-08-30T09:03:51.698Z,25.10
2022-08-30T09:06:45.728Z,25.30
2022-08-30T09:09:13.960Z,25.40
2022-08-30T09:11:42.440Z,25.70
2022-08-30T09:14:17.942Z,26.10
2022-08-30T09:17:02.979Z,26.20
2022-08-30T09:19:42.593Z,26.40
2022-08-30T09:22:16.980Z,26.50
2022-08-30T09:24:49.669Z,26.70
2022-08-30T09:27:34.669Z,26.70
2022-08-30T09:30:27.788Z,26.80
2022-08-30T09:33:07.711Z,26.70
2022-08-30T09:35:49.685Z,26.90
2022-08-30T09:38:24.967Z,27.00
2022-08-30T09:40:55.919Z,27.10
2022-08-30T09:43:29.314Z,27.30
2022-08-30T09:46:03.468Z,27.10
2022-08-30T09:48:40.898Z,27.30
2022-08-30T09:51:11.040Z,27.80
2022-08-30T09:54:18.280Z,27.90
2022-08-30T09:57:03.867Z,28.10
2022-08-30T09:59:41.789Z,28.40
2022-08-30T10:02:43.855Z,28.70
2022-08-30T10:06:00.824Z,29.20
2022-08-30T10:08:45.816Z,29.30
2022-08-30T10:11:50.292Z,29.10
2022-08-30T10:14:32.432Z,29.00
2022-08-30T10:17:12.459Z,29.20
2022-08-30T10:20:07.916Z,29.40
2022-08-30T10:22:46.607Z,29.50
2022-08-30T10:25:21.671Z,29.10
2022-08-30T10:28:14.662Z,29.40
2022-08-30T10:30:52.881Z,29.90
2022-08-30T10:33:40.876Z,29.80
2022-08-30T10:36:12.932Z,30.50
2022-08-30T10:38:48.733Z,30.60
2022-08-30T10:41:39.932Z,30.30
2022-08-30T10:44:23.007Z,30.10
2022-08-30T10:47:05.036Z,30.00
2022-08-30T10:49:40.674Z,30.10
2022-08-30T10:52:41.780Z,30.30
2022-08-30T10:55:19.321Z,30.90
2022-08-30T10:57:46.798Z,30.70
2022-08-30T11:00:24.389Z,30.50
2022-08-30T11:03:37.285Z,30.70
2022-08-30T11:06:55.007Z,30.80
2022-08-30T11:09:42.128Z,30.60
2022-08-30T11:12:27.542Z,30.30
2022-08-30T11:14:55.299Z,30.50
2022-08-30T11:17:28.668Z,30.40
2022-08-30T11:20:01.431Z,30.50
2022-08-30T11:22:34.422Z,30.30
2022-08-30T11:25:14.141Z,30.80
2022-08-30T11:27:58.934Z,30.70
2022-08-30T11:30:26.492Z,30.70
2022-08-30T11:33:03.084Z,30.50
2022-08-30T11:35:52.513Z,30.80
2022-08-30T11:38:25.530Z,30.70
2022-08-30T11:40:55.279Z,31.00
2022-08-30T11:43:34.568Z,31.00
2022-08-30T11:46:17.694Z,30.70
2022-08-30T11:49:13.071Z,30.20
2022-08-30T11:52:27.937Z,30.00
2022-08-30T11:55:04.131Z,30.00
2022-08-30T11:57:45.536Z,29.90
2022-08-30T12:00:39.749Z,30.20
2022-08-30T12:03:20.519Z,30.30
2022-08-30T12:06:08.810Z,30.30
2022-08-30T12:08:47.566Z,30.20
2022-08-30T12:11:19.036Z,30.40
2022-08-30T12:13:45.947Z,30.70
2022-08-30T12:16:22.053Z,31.00
2022-08-30T12:19:00.153Z,30.90
2022-08-30T12:21:43.659Z,30.40
2022-08-30T12:24:30.266Z,30.30
2022-08-30T12:26:59.027Z,30.50
2022-08-30T12:29:30.219Z,30.60
2022-08-30T12:32:22.288Z,31.10
2022-08-30T12:34:58.894Z,31.50
2022-08-30T12:37:36.362Z,31.20
2022-08-30T12:40:11.679Z,31.40
2022-08-30T12:43:04.790Z,31.20
2022-08-30T12:45:40.117Z,31.10
2022-08-30T12:48:12.351Z,30.90
2022-08-30T12:50:52.000Z,30.70
2022-08-30T12:53:41.992Z,30.70
2022-08-30T12:56:21.277Z,30.80
2022-08-30T12:59:02.170Z,30.70
2022-08-30T13:01:35.877Z,30.30
2022-08-30T13:04:25.815Z,29.70
2022-08-30T13:06:59.523Z,29.80
2022-08-30T13:09:35.294Z,29.90
2022-08-30T13:12:06.033Z,30.40
2022-08-30T13:14:43.984Z,31.20
2022-08-30T13:17:24.475Z,32.10
2022-08-30T13:20:01.086Z,32.80
2022-08-30T13:22:39.067Z,32.60
2022-08-30T13:25:09.410Z,33.20
2022-08-30T13:27:38.852Z,33.50
2022-08-30T13:30:14.772Z,33.30
2022-08-30T13:32:42.340Z,34.10
2022-08-30T13:35:11.203Z,33.80
2022-08-30T13:37:49.554Z,33.60
2022-08-30T13:40:21.185Z,32.70
2022-08-30T13:42:48.786Z,33.30
2022-08-30T13:48:06.743Z,34.40
2022-08-30T13:50:33.772Z,35.40
2022-08-30T13:53:00.763Z,36.00
2022-08-30T13:55:28.546Z,35.50
2022-08-30T13:57:56.590Z,35.90
2022-08-30T14:00:25.945Z,36.80
2022-08-30T14:02:57.196Z,36.90
2022-08-30T14:05:49.475Z,37.70
2022-08-30T14:08:47.797Z,38.50
2022-08-30T14:11:20.855Z,38.70
2022-08-30T14:16:41.334Z,38.10
2022-08-30T14:19:09.049Z,37.30
2022-08-30T14:21:36.623Z,36.90
2022-08-30T14:24:07.888Z,36.00
2022-08-30T14:26:40.436Z,35.80
2022-08-30T14:29:12.194Z,35.10
2022-08-30T14:31:40.675Z,34.40
2022-08-30T14:34:10.937Z,34.70
2022-08-30T14:36:41.820Z,35.40
2022-08-30T14:39:15.135Z,36.00
2022-08-30T14:41:49.349Z,36.80
2022-08-30T14:44:18.476Z,37.70
2022-08-30T14:46:46.005Z,38.80
2022-08-30T14:49:14.081Z,39.20
2022-08-30T14:51:41.749Z,38.90
2022-08-30T14:54:09.879Z,38.20
2022-08-30T14:56:38.385Z,36.30
2022-08-30T14:59:06.175Z,34.60
2022-08-30T15:01:37.289Z,33.40
2022-08-30T15:04:06.210Z,32.30
2022-08-30T15:06:36.140Z,31.60
2022-08-30T15:09:06.570Z,31.20
2022-08-30T15:11:34.138Z,31.00
2022-08-30T15:14:01.851Z,31.00
2022-08-30T15:16:33.805Z,31.00
2022-08-30T15:19:02.706Z,30.90
2022-08-30T15:21:36.235Z,30.80
2022-08-30T15:24:06.132Z,30.70
2022-08-30T15:26:33.498Z,30.90
2022-08-30T15:29:00.366Z,31.30
2022-08-30T15:31:29.030Z,31.80
2022-08-30T15:33:57.237Z,31.70
2022-08-30T15:36:25.949Z,31.30
2022-08-30T15:38:55.696Z,31.20
2022-08-30T15:41:23.920Z,31.20
2022-08-30T15:43:52.753Z,31.30
2022-08-30T15:46:33.136Z,31.90
2022-08-30T15:49:19.060Z,32.80
2022-08-30T15:51:48.329Z,33.40
2022-08-30T15:54:22.854Z,34.40
2022-08-30T15:56:50.148Z,34.20
2022-08-30T15:59:18.546Z,34.80
2022-08-30T16:01:47.681Z,34.90
2022-08-30T16:04:17.104Z,34.90
2022-08-30T16:06:46.641Z,35.60
2022-08-30T16:09:13.981Z,36.30
2022-08-30T16:11:41.826Z,37.10
2022-08-30T16:14:09.862Z,36.90
2022-08-30T16:16:39.983Z,35.90
2022-08-30T16:19:09.195Z,34.60
2022-08-30T16:21:37.379Z,33.60
2022-08-30T16:24:07.819Z,32.60
2022-08-30T16:26:38.042Z,31.90
2022-08-30T16:29:07.582Z,31.20
2022-08-30T16:31:36.734Z,31.00
2022-08-30T16:34:05.180Z,30.70
2022-08-30T16:36:34.542Z,30.50
2022-08-30T16:39:02.373Z,30.30
2022-08-30T16:41:29.531Z,30.10
2022-08-30T16:44:00.467Z,30.00
2022-08-30T16:46:28.116Z,30.10
2022-08-30T16:48:58.284Z,29.80
2022-08-30T16:51:27.976Z,29.70
2022-08-30T16:53:57.986Z,29.40
2022-08-30T16:56:27.183Z,29.10
2022-08-30T16:59:01.241Z,28.90
2022-08-30T17:01:34.944Z,28.60
2022-08-30T17:04:04.201Z,28.40
2022-08-30T17:06:32.220Z,28.40
2022-08-30T17:08:59.510Z,28.40
2022-08-30T17:11:27.289Z,28.30
2022-08-30T17:13:55.008Z,28.20
2022-08-30T17:16:27.561Z,28.10
2022-08-30T17:18:59.926Z,27.90
2022-08-30T17:21:29.817Z,27.80
2022-08-30T17:24:02.427Z,27.60
2022-08-30T17:26:35.286Z,27.50
2022-08-30T17:29:03.780Z,27.30
2022-08-30T17:31:31.478Z,27.10
2022-08-30T17:34:04.136Z,26.90
2022-08-30T17:36:36.606Z,26.80
2022-08-30T17:39:10.631Z,26.70
2022-08-30T17:41:45.171Z,26.60
2022-08-30T17:44:16.988Z,26.40
2022-08-30T17:46:43.952Z,26.30
2022-08-30T17:49:11.794Z,26.20
2022-08-30T17:51:42.529Z,26.10
2022-08-30T17:54:12.747Z,26.00
2022-08-30T17:56:41.442Z,25.90
2022-08-30T17:59:15.400Z,25.80
2022-08-30T18:01:44.826Z,25.70
2022-08-30T18:04:14.113Z,25.70
2022-08-30T18:06:47.493Z,25.60
2022-08-30T18:09:14.680Z,25.60
2022-08-30T18:11:41.906Z,25.50
2022-08-30T18:14:11.402Z,25.50
2022-08-30T18:16:54.261Z,25.40
2022-08-30T18:19:26.332Z,25.20
2022-08-30T18:21:55.549Z,25.20
2022-08-30T18:24:23.214Z,25.20
2022-08-30T18:26:50.426Z,25.10
2022-08-30T18:29:26.228Z,25.00
2022-08-30T18:32:04.174Z,24.90
2022-08-30T18:34:31.646Z,24.90
2022-08-30T18:36:58.631Z,24.80
2022-08-30T18:39:25.971Z,24.70
2022-08-30T18:41:54.448Z,24.50
2022-08-30T18:44:28.367Z,24.40
2022-08-30T18:47:00.308Z,24.30
2022-08-30T18:49:29.035Z,24.30
2022-08-30T18:51:59.749Z,24.20
2022-08-30T18:54:26.641Z,24.30
2022-08-30T18:56:53.680Z,24.20
2022-08-30T18:59:21.784Z,24.00
2022-08-30T19:01:49.681Z,24.00
2022-08-30T19:04:22.261Z,24.00
2022-08-30T19:06:57.338Z,24.00
2022-08-30T19:09:24.297Z,24.10
2022-08-30T19:11:54.233Z,24.00
2022-08-30T19:14:21.682Z,24.00
2022-08-30T19:16:48.598Z,23.90
2022-08-30T19:19:16.123Z,23.80
2022-08-30T19:21:42.948Z,23.70
2022-08-30T19:24:10.089Z,23.70
2022-08-30T19:26:38.405Z,23.60
2022-08-30T19:29:07.204Z,23.60
2022-08-30T19:31:34.733Z,23.60
2022-08-30T19:34:02.450Z,23.50
2022-08-30T19:36:30.666Z,23.40
2022-08-30T19:38:57.632Z,23.40
2022-08-30T19:41:25.989Z,23.30
2022-08-30T19:43:52.843Z,23.20
2022-08-30T19:46:20.189Z,23.10
2022-08-30T19:48:47.187Z,23.00
2022-08-30T19:51:15.745Z,22.90
2022-08-30T19:53:43.484Z,22.80
2022-08-30T19:56:12.059Z,22.70
2022-08-30T19:58:38.970Z,22.60
2022-08-30T20:01:11.860Z,22.50
2022-08-30T20:03:40.101Z,22.50
2022-08-30T20:06:08.908Z,22.40
2022-08-30T20:08:37.147Z,22.30
2022-08-30T20:11:05.614Z,22.30
2022-08-30T20:13:33.761Z,22.30
2022-08-30T20:16:01.574Z,22.20
2022-08-30T20:18:29.150Z,22.10
2022-08-30T20:20:57.176Z,22.10
2022-08-30T20:23:25.369Z,22.10
2022-08-30T20:25:55.497Z,22.10
2022-08-30T20:28:25.184Z,22.10
2022-08-30T20:30:53.730Z,22.10
2022-08-30T20:33:23.491Z,21.90
2022-08-30T20:35:51.636Z,21.80
2022-08-30T20:38:21.425Z,21.70
2022-08-30T20:40:55.063Z,21.60
2022-08-30T20:43:25.569Z,21.60
2022-08-30T20:45:53.472Z,21.70
2022-08-30T20:48:20.767Z,21.70
2022-08-30T20:50:47.928Z,21.70
2022-08-30T20:53:15.329Z,21.70
2022-08-30T20:55:47.685Z,21.80
2022-08-30T20:58:15.222Z,21.90
2022-08-30T21:00:45.887Z,21.90
2022-08-30T21:03:27.689Z,21.90
2022-08-30T21:05:56.651Z,22.00
2022-08-30T21:08:23.676Z,22.10
2022-08-30T21:10:50.725Z,22.10
2022-08-30T21:13:17.864Z,22.00
2022-08-30T21:15:46.218Z,22.00
2022-08-30T21:18:14.295Z,22.00
2022-08-30T21:20:41.766Z,22.00
2022-08-30T21:23:09.345Z,21.90
2022-08-30T21:25:43.792Z,21.90
2022-08-30T21:28:10.986Z,21.80
2022-08-30T21:30:38.243Z,21.70
2022-08-30T21:33:07.395Z,21.70
2022-08-30T21:35:53.823Z,21.60
2022-08-30T21:38:20.899Z,21.50
2022-08-30T21:40:48.754Z,21.40
2022-08-30T21:43:16.367Z,21.30
2022-08-30T21:45:45.614Z,21.30
2022-08-30T21:48:14.142Z,21.20
2022-08-30T21:50:42.715Z,21.10
2022-08-30T21:53:10.761Z,20.90
2022-08-30T21:55:38.863Z,20.90
2022-08-30T21:58:06.436Z,20.80
2022-08-30T22:00:33.708Z,20.70
2022-08-30T22:03:00.796Z,20.80
2022-08-30T22:05:27.809Z,20.70
2022-08-30T22:07:54.813Z,20.70
2022-08-30T22:10:21.833Z,20.60
2022-08-30T22:12:49.039Z,20.60
2022-08-30T22:15:16.510Z,20.60
2022-08-30T22:17:43.874Z,20.80
2022-08-30T22:20:18.470Z,21.00
2022-08-30T22:22:45.620Z,21.10
2022-08-30T22:25:12.781Z,21.10
2022-08-30T22:27:39.874Z,21.20
2022-08-30T22:30:07.476Z,21.20
2022-08-30T22:32:34.510Z,21.20
2022-08-30T22:35:01.617Z,21.20
2022-08-30T22:37:30.069Z,21.20
2022-08-30T22:39:57.033Z,21.20
2022-08-30T22:42:24.072Z,21.20
2022-08-30T22:44:52.157Z,21.20
2022-08-30T22:47:19.175Z,21.20
2022-08-30T22:49:46.036Z,21.20
2022-08-30T22:52:14.441Z,21.20
2022-08-30T22:54:41.411Z,21.30
2022-08-30T22:57:09.161Z,21.20
2022-08-30T22:59:36.261Z,21.20
2022-08-30T23:02:03.468Z,21.20
2022-08-30T23:04:30.990Z,21.20
2022-08-30T23:06:57.960Z,21.10
2022-08-30T23:09:24.812Z,21.00
2022-08-30T23:11:51.796Z,20.90
2022-08-30T23:14:18.808Z,20.90
2022-08-30T23:16:49.292Z,20.90
2022-08-30T23:19:16.899Z,21.00
2022-08-30T23:21:43.973Z,21.00
2022-08-30T23:24:29.417Z,21.00
2022-08-30T23:27:14.885Z,20.90
2022-08-30T23:30:00.386Z,20.80
2022-08-30T23:32:46.024Z,20.80
2022-08-30T23:35:32.228Z,20.70
2022-08-30T23:38:22.660Z,20.70
2022-08-30T23:41:07.926Z,20.70
2022-08-30T23:43:54.144Z,20.80
2022-08-30T23:46:40.199Z,20.80
2022-08-30T23:49:25.729Z,20.90
2022-08-30T23:52:10.976Z,20.90
2022-08-30T23:54:57.572Z,20.80
2022-08-30T23:57:45.545Z,20.70
